sensor_id;sensor_type;location;lat;lon;timestamp;P1;durP1;ratioP1;P2;durP2;ratioP2
5460;SDS011;2753;49.196;8.286;2023-09-12T00:02:23;12.47;;;8.10;;
5460;SDS011;2753;49.196;8.286;2023-09-12T00:04:54;14.33;;;7.60;;
5460;SDS011;2753;49.196;8.286;2023-09-12T00:07:22;18.87;;;9.00;;
5460;SDS011;2753;49.196;8.286;2023-09-12T00:09:53;22.43;;;9.03;;
5460;SDS011;2753;49.196;8.286;2023-09-12T00:12:27;15.33;;;8.60;;
5460;SDS011;2753;49.196;8.286;2023-09-12T00:15:04;19.07;;;8.87;;
5460;SDS011;2753;49.196;8.286;2023-09-12T00:20:20;14.03;;;9.00;;
5460;SDS011;2753;49.196;8.286;2023-09-12T00:23:06;12.47;;;8.20;;
5460;SDS011;2753;49.196;8.286;2023-09-12T00:25:37;20.80;;;8.80;;
5460;SDS011;2753;49.196;8.286;2023-09-12T00:28:11;11.93;;;8.40;;
5460;SDS011;2753;49.196;8.286;2023-09-12T00:30:39;17.80;;;9.07;;
5460;SDS011;2753;49.196;8.286;2023-09-12T00:33:20;19.57;;;8.33;;
5460;SDS011;2753;49.196;8.286;2023-09-12T00:35:52;12.93;;;7.53;;
5460;SDS011;2753;49.196;8.286;2023-09-12T00:38:22;15.87;;;8.40;;
5460;SDS011;2753;49.196;8.286;2023-09-12T00:40:57;17.53;;;8.73;;
5460;SDS011;2753;49.196;8.286;2023-09-12T00:43:34;13.87;;;8.40;;
5460;SDS011;2753;49.196;8.286;2023-09-12T00:46:08;12.27;;;8.40;;
5460;SDS011;2753;49.196;8.286;2023-09-12T00:48:39;8.80;;;6.77;;
5460;SDS011;2753;49.196;8.286;2023-09-12T00:51:21;11.13;;;8.13;;
5460;SDS011;2753;49.196;8.286;2023-09-12T00:53:54;11.60;;;7.77;;
5460;SDS011;2753;49.196;8.286;2023-09-12T00:56:25;14.10;;;8.43;;
5460;SDS011;2753;49.196;8.286;2023-09-12T00:58:51;18.00;;;8.40;;
5460;SDS011;2753;49.196;8.286;2023-09-12T01:01:30;13.50;;;8.47;;
5460;SDS011;2753;49.196;8.286;2023-09-12T01:04:03;13.73;;;9.03;;
5460;SDS011;2753;49.196;8.286;2023-09-12T01:06:34;18.37;;;8.70;;
5460;SDS011;2753;49.196;8.286;2023-09-12T01:09:12;11.00;;;8.10;;
5460;SDS011;2753;49.196;8.286;2023-09-12T01:11:43;11.37;;;8.43;;
5460;SDS011;2753;49.196;8.286;2023-09-12T01:14:09;18.97;;;7.40;;
5460;SDS011;2753;49.196;8.286;2023-09-12T01:16:41;14.43;;;8.27;;
5460;SDS011;2753;49.196;8.286;2023-09-12T01:19:18;13.60;;;8.10;;
5460;SDS011;2753;49.196;8.286;2023-09-12T01:25:00;14.30;;;8.27;;
5460;SDS011;2753;49.196;8.286;2023-09-12T01:27:49;12.90;;;7.90;;
5460;SDS011;2753;49.196;8.286;2023-09-12T01:30:28;15.77;;;8.90;;
5460;SDS011;2753;49.196;8.286;2023-09-12T01:33:00;16.70;;;8.70;;
5460;SDS011;2753;49.196;8.286;2023-09-12T01:35:43;15.77;;;8.63;;
5460;SDS011;2753;49.196;8.286;2023-09-12T01:38:12;16.27;;;8.53;;
5460;SDS011;2753;49.196;8.286;2023-09-12T01:40:43;12.40;;;8.30;;
5460;SDS011;2753;49.196;8.286;2023-09-12T01:43:19;15.73;;;8.90;;
5460;SDS011;2753;49.196;8.286;2023-09-12T01:45:54;13.33;;;8.63;;
5460;SDS011;2753;49.196;8.286;2023-09-12T01:48:35;17.70;;;8.80;;
5460;SDS011;2753;49.196;8.286;2023-09-12T01:51:10;10.73;;;7.80;;
5460;SDS011;2753;49.196;8.286;2023-09-12T01:53:50;12.50;;;8.47;;
5460;SDS011;2753;49.196;8.286;2023-09-12T01:56:22;21.80;;;8.53;;
5460;SDS011;2753;49.196;8.286;2023-09-12T01:58:51;18.13;;;8.73;;
5460;SDS011;2753;49.196;8.286;2023-09-12T02:01:24;10.67;;;8.13;;
5460;SDS011;2753;49.196;8.286;2023-09-12T02:03:55;19.27;;;8.57;;
5460;SDS011;2753;49.196;8.286;2023-09-12T02:06:26;14.80;;;9.30;;
5460;SDS011;2753;49.196;8.286;2023-09-12T02:08:55;23.77;;;8.93;;
5460;SDS011;2753;49.196;8.286;2023-09-12T02:11:27;24.50;;;8.87;;
5460;SDS011;2753;49.196;8.286;2023-09-12T02:13:58;17.07;;;8.13;;
5460;SDS011;2753;49.196;8.286;2023-09-12T02:16:32;12.27;;;7.70;;
5460;SDS011;2753;49.196;8.286;2023-09-12T02:19:04;12.20;;;8.13;;
5460;SDS011;2753;49.196;8.286;2023-09-12T02:21:35;10.60;;;8.30;;
5460;SDS011;2753;49.196;8.286;2023-09-12T02:24:07;21.23;;;8.80;;
5460;SDS011;2753;49.196;8.286;2023-09-12T02:26:35;18.13;;;8.10;;
5460;SDS011;2753;49.196;8.286;2023-09-12T02:29:13;13.43;;;8.77;;
5460;SDS011;2753;49.196;8.286;2023-09-12T02:31:41;18.13;;;8.87;;
5460;SDS011;2753;49.196;8.286;2023-09-12T02:34:10;12.13;;;8.00;;
5460;SDS011;2753;49.196;8.286;2023-09-12T02:36:41;20.87;;;8.90;;
5460;SDS011;2753;49.196;8.286;2023-09-12T02:39:13;14.70;;;8.20;;
5460;SDS011;2753;49.196;8.286;2023-09-12T02:41:44;22.03;;;9.00;;
5460;SDS011;2753;49.196;8.286;2023-09-12T02:44:17;19.17;;;9.03;;
5460;SDS011;2753;49.196;8.286;2023-09-12T02:46:48;23.13;;;8.73;;
5460;SDS011;2753;49.196;8.286;2023-09-12T02:49:22;9.80;;;7.80;;
5460;SDS011;2753;49.196;8.286;2023-09-12T02:51:56;18.47;;;9.10;;
5460;SDS011;2753;49.196;8.286;2023-09-12T02:54:22;10.40;;;8.20;;
5460;SDS011;2753;49.196;8.286;2023-09-12T02:56:58;17.50;;;8.10;;
5460;SDS011;2753;49.196;8.286;2023-09-12T02:59:26;15.03;;;8.80;;
5460;SDS011;2753;49.196;8.286;2023-09-12T03:01:56;10.33;;;7.73;;
5460;SDS011;2753;49.196;8.286;2023-09-12T03:04:29;17.50;;;8.07;;
5460;SDS011;2753;49.196;8.286;2023-09-12T03:06:57;11.23;;;7.60;;
5460;SDS011;2753;49.196;8.286;2023-09-12T03:09:29;20.27;;;8.40;;
5460;SDS011;2753;49.196;8.286;2023-09-12T03:11:58;15.23;;;7.90;;
5460;SDS011;2753;49.196;8.286;2023-09-12T03:14:27;21.23;;;9.10;;
5460;SDS011;2753;49.196;8.286;2023-09-12T03:17:03;15.47;;;7.80;;
5460;SDS011;2753;49.196;8.286;2023-09-12T03:19:34;16.00;;;8.20;;
5460;SDS011;2753;49.196;8.286;2023-09-12T03:22:03;13.10;;;9.00;;
5460;SDS011;2753;49.196;8.286;2023-09-12T03:24:34;15.87;;;8.10;;
5460;SDS011;2753;49.196;8.286;2023-09-12T03:27:00;19.83;;;9.40;;
5460;SDS011;2753;49.196;8.286;2023-09-12T03:29:26;15.70;;;8.00;;
5460;SDS011;2753;49.196;8.286;2023-09-12T03:31:54;19.70;;;8.13;;
5460;SDS011;2753;49.196;8.286;2023-09-12T03:34:22;12.60;;;7.67;;
5460;SDS011;2753;49.196;8.286;2023-09-12T03:36:51;13.30;;;8.13;;
5460;SDS011;2753;49.196;8.286;2023-09-12T03:39:19;20.97;;;9.13;;
5460;SDS011;2753;49.196;8.286;2023-09-12T03:41:56;13.57;;;8.53;;
5460;SDS011;2753;49.196;8.286;2023-09-12T03:44:24;21.63;;;8.50;;
5460;SDS011;2753;49.196;8.286;2023-09-12T03:46:57;15.00;;;8.27;;
5460;SDS011;2753;49.196;8.286;2023-09-12T03:49:32;10.60;;;7.70;;
5460;SDS011;2753;49.196;8.286;2023-09-12T03:51:58;12.80;;;7.20;;
5460;SDS011;2753;49.196;8.286;2023-09-12T03:54:32;9.77;;;7.87;;
5460;SDS011;2753;49.196;8.286;2023-09-12T03:57:01;12.20;;;7.20;;
5460;SDS011;2753;49.196;8.286;2023-09-12T03:59:30;15.33;;;7.90;;
5460;SDS011;2753;49.196;8.286;2023-09-12T04:01:58;14.80;;;8.03;;
5460;SDS011;2753;49.196;8.286;2023-09-12T04:04:26;20.80;;;9.00;;
5460;SDS011;2753;49.196;8.286;2023-09-12T04:06:52;12.30;;;8.70;;
5460;SDS011;2753;49.196;8.286;2023-09-12T04:09:23;14.33;;;8.10;;
5460;SDS011;2753;49.196;8.286;2023-09-12T04:11:49;15.30;;;7.40;;
5460;SDS011;2753;49.196;8.286;2023-09-12T04:14:24;14.80;;;7.70;;
5460;SDS011;2753;49.196;8.286;2023-09-12T04:16:55;12.80;;;8.20;;
5460;SDS011;2753;49.196;8.286;2023-09-12T04:19:21;16.20;;;7.67;;
5460;SDS011;2753;49.196;8.286;2023-09-12T04:21:49;17.57;;;8.50;;
5460;SDS011;2753;49.196;8.286;2023-09-12T04:24:15;18.47;;;8.30;;
5460;SDS011;2753;49.196;8.286;2023-09-12T04:26:44;16.50;;;8.70;;
5460;SDS011;2753;49.196;8.286;2023-09-12T04:29:10;17.10;;;9.00;;
5460;SDS011;2753;49.196;8.286;2023-09-12T04:31:36;18.70;;;8.57;;
5460;SDS011;2753;49.196;8.286;2023-09-12T04:34:04;20.13;;;9.23;;
5460;SDS011;2753;49.196;8.286;2023-09-12T04:36:38;18.97;;;8.67;;
5460;SDS011;2753;49.196;8.286;2023-09-12T04:39:04;14.67;;;8.80;;
5460;SDS011;2753;49.196;8.286;2023-09-12T04:41:32;15.17;;;9.10;;
5460;SDS011;2753;49.196;8.286;2023-09-12T04:44:00;13.30;;;9.13;;
5460;SDS011;2753;49.196;8.286;2023-09-12T04:46:34;19.53;;;8.97;;
5460;SDS011;2753;49.196;8.286;2023-09-12T04:49:02;19.63;;;8.60;;
5460;SDS011;2753;49.196;8.286;2023-09-12T04:51:34;19.60;;;8.50;;
5460;SDS011;2753;49.196;8.286;2023-09-12T04:54:00;32.50;;;9.57;;
5460;SDS011;2753;49.196;8.286;2023-09-12T04:56:29;28.63;;;9.30;;
5460;SDS011;2753;49.196;8.286;2023-09-12T04:58:55;21.70;;;9.70;;
5460;SDS011;2753;49.196;8.286;2023-09-12T05:01:24;24.33;;;10.27;;
5460;SDS011;2753;49.196;8.286;2023-09-12T05:03:52;18.27;;;9.47;;
5460;SDS011;2753;49.196;8.286;2023-09-12T05:06:18;16.83;;;8.90;;
5460;SDS011;2753;49.196;8.286;2023-09-12T05:08:46;15.13;;;9.67;;
5460;SDS011;2753;49.196;8.286;2023-09-12T05:11:12;19.53;;;9.47;;
5460;SDS011;2753;49.196;8.286;2023-09-12T05:13:40;25.37;;;9.60;;
5460;SDS011;2753;49.196;8.286;2023-09-12T05:16:16;15.67;;;9.33;;
5460;SDS011;2753;49.196;8.286;2023-09-12T05:18:42;21.40;;;9.80;;
5460;SDS011;2753;49.196;8.286;2023-09-12T05:21:08;14.53;;;8.73;;
5460;SDS011;2753;49.196;8.286;2023-09-12T05:23:34;19.63;;;10.10;;
5460;SDS011;2753;49.196;8.286;2023-09-12T05:26:00;20.37;;;9.27;;
5460;SDS011;2753;49.196;8.286;2023-09-12T05:28:26;13.30;;;9.27;;
5460;SDS011;2753;49.196;8.286;2023-09-12T05:30:52;18.83;;;9.87;;
5460;SDS011;2753;49.196;8.286;2023-09-12T05:33:18;19.10;;;9.57;;
5460;SDS011;2753;49.196;8.286;2023-09-12T05:35:44;22.73;;;9.17;;
5460;SDS011;2753;49.196;8.286;2023-09-12T05:38:10;13.70;;;9.60;;
5460;SDS011;2753;49.196;8.286;2023-09-12T05:40:36;29.53;;;10.33;;
5460;SDS011;2753;49.196;8.286;2023-09-12T05:43:24;19.10;;;9.67;;
5460;SDS011;2753;49.196;8.286;2023-09-12T05:46:01;15.47;;;9.40;;
5460;SDS011;2753;49.196;8.286;2023-09-12T05:48:32;13.60;;;8.80;;
5460;SDS011;2753;49.196;8.286;2023-09-12T05:51:00;18.43;;;9.67;;
5460;SDS011;2753;49.196;8.286;2023-09-12T05:53:31;15.10;;;9.70;;
5460;SDS011;2753;49.196;8.286;2023-09-12T05:56:02;15.73;;;10.77;;
5460;SDS011;2753;49.196;8.286;2023-09-12T05:58:31;20.40;;;10.10;;
5460;SDS011;2753;49.196;8.286;2023-09-12T06:01:09;17.73;;;9.47;;
5460;SDS011;2753;49.196;8.286;2023-09-12T06:03:45;16.93;;;10.07;;
5460;SDS011;2753;49.196;8.286;2023-09-12T06:06:13;15.10;;;9.33;;
5460;SDS011;2753;49.196;8.286;2023-09-12T06:08:39;25.67;;;10.13;;
5460;SDS011;2753;49.196;8.286;2023-09-12T06:11:05;17.33;;;9.17;;
5460;SDS011;2753;49.196;8.286;2023-09-12T06:13:31;15.70;;;9.33;;
5460;SDS011;2753;49.196;8.286;2023-09-12T06:15:57;23.57;;;9.63;;
5460;SDS011;2753;49.196;8.286;2023-09-12T06:18:24;24.63;;;9.07;;
5460;SDS011;2753;49.196;8.286;2023-09-12T06:20:51;16.60;;;9.03;;
5460;SDS011;2753;49.196;8.286;2023-09-12T06:23:17;16.10;;;9.70;;
5460;SDS011;2753;49.196;8.286;2023-09-12T06:25:43;15.43;;;9.63;;
5460;SDS011;2753;49.196;8.286;2023-09-12T06:28:09;27.40;;;11.10;;
5460;SDS011;2753;49.196;8.286;2023-09-12T06:30:35;36.63;;;9.93;;
5460;SDS011;2753;49.196;8.286;2023-09-12T06:33:01;16.63;;;10.33;;
5460;SDS011;2753;49.196;8.286;2023-09-12T06:35:27;31.40;;;10.53;;
5460;SDS011;2753;49.196;8.286;2023-09-12T06:37:53;31.50;;;10.63;;
5460;SDS011;2753;49.196;8.286;2023-09-12T06:40:21;23.73;;;10.83;;
5460;SDS011;2753;49.196;8.286;2023-09-12T06:42:46;22.40;;;11.87;;
5460;SDS011;2753;49.196;8.286;2023-09-12T06:45:15;27.27;;;10.67;;
5460;SDS011;2753;49.196;8.286;2023-09-12T06:47:41;18.43;;;10.97;;
5460;SDS011;2753;49.196;8.286;2023-09-12T06:50:09;17.97;;;10.90;;
5460;SDS011;2753;49.196;8.286;2023-09-12T06:52:35;19.70;;;10.10;;
5460;SDS011;2753;49.196;8.286;2023-09-12T06:55:01;22.60;;;11.60;;
5460;SDS011;2753;49.196;8.286;2023-09-12T06:57:26;23.73;;;10.70;;
5460;SDS011;2753;49.196;8.286;2023-09-12T06:59:52;18.97;;;10.70;;
5460;SDS011;2753;49.196;8.286;2023-09-12T07:02:18;21.07;;;10.50;;
5460;SDS011;2753;49.196;8.286;2023-09-12T07:04:43;21.33;;;11.10;;
5460;SDS011;2753;49.196;8.286;2023-09-12T07:07:09;27.37;;;10.40;;
5460;SDS011;2753;49.196;8.286;2023-09-12T07:09:35;19.43;;;10.77;;
5460;SDS011;2753;49.196;8.286;2023-09-12T07:12:00;23.27;;;11.43;;
5460;SDS011;2753;49.196;8.286;2023-09-12T07:14:26;21.50;;;10.90;;
5460;SDS011;2753;49.196;8.286;2023-09-12T07:16:51;15.73;;;9.70;;
5460;SDS011;2753;49.196;8.286;2023-09-12T07:19:17;31.80;;;11.20;;
5460;SDS011;2753;49.196;8.286;2023-09-12T07:21:43;19.50;;;10.60;;
5460;SDS011;2753;49.196;8.286;2023-09-12T07:24:08;19.00;;;10.30;;
5460;SDS011;2753;49.196;8.286;2023-09-12T07:26:34;17.93;;;10.63;;
5460;SDS011;2753;49.196;8.286;2023-09-12T07:29:00;23.27;;;11.40;;
5460;SDS011;2753;49.196;8.286;2023-09-12T07:31:27;23.10;;;12.03;;
5460;SDS011;2753;49.196;8.286;2023-09-12T07:33:53;21.37;;;12.37;;
5460;SDS011;2753;49.196;8.286;2023-09-12T07:36:19;22.33;;;13.17;;
5460;SDS011;2753;49.196;8.286;2023-09-12T07:38:45;29.87;;;12.70;;
5460;SDS011;2753;49.196;8.286;2023-09-12T07:41:12;21.27;;;11.87;;
5460;SDS011;2753;49.196;8.286;2023-09-12T07:43:40;27.50;;;12.53;;
5460;SDS011;2753;49.196;8.286;2023-09-12T07:46:06;33.20;;;11.80;;
5460;SDS011;2753;49.196;8.286;2023-09-12T07:48:32;26.80;;;11.00;;
5460;SDS011;2753;49.196;8.286;2023-09-12T07:50:58;19.37;;;11.33;;
5460;SDS011;2753;49.196;8.286;2023-09-12T07:53:24;19.80;;;10.50;;
5460;SDS011;2753;49.196;8.286;2023-09-12T07:55:49;18.17;;;10.90;;
5460;SDS011;2753;49.196;8.286;2023-09-12T07:58:16;32.93;;;10.70;;
5460;SDS011;2753;49.196;8.286;2023-09-12T08:00:46;27.27;;;10.53;;
5460;SDS011;2753;49.196;8.286;2023-09-12T08:03:12;23.17;;;10.07;;
5460;SDS011;2753;49.196;8.286;2023-09-12T08:05:38;18.33;;;10.20;;
5460;SDS011;2753;49.196;8.286;2023-09-12T08:08:04;21.83;;;10.93;;
5460;SDS011;2753;49.196;8.286;2023-09-12T08:10:30;22.60;;;11.07;;
5460;SDS011;2753;49.196;8.286;2023-09-12T08:12:56;22.10;;;9.50;;
5460;SDS011;2753;49.196;8.286;2023-09-12T08:15:21;24.00;;;10.60;;
5460;SDS011;2753;49.196;8.286;2023-09-12T08:17:47;20.67;;;10.70;;
5460;SDS011;2753;49.196;8.286;2023-09-12T08:20:16;25.87;;;9.90;;
5460;SDS011;2753;49.196;8.286;2023-09-12T08:22:43;35.03;;;10.63;;
5460;SDS011;2753;49.196;8.286;2023-09-12T08:25:08;18.57;;;9.70;;
5460;SDS011;2753;49.196;8.286;2023-09-12T08:27:35;19.07;;;10.50;;
5460;SDS011;2753;49.196;8.286;2023-09-12T08:30:01;26.67;;;9.53;;
5460;SDS011;2753;49.196;8.286;2023-09-12T08:32:27;20.03;;;10.30;;
5460;SDS011;2753;49.196;8.286;2023-09-12T08:34:52;25.43;;;9.43;;
5460;SDS011;2753;49.196;8.286;2023-09-12T08:37:18;16.30;;;8.87;;
5460;SDS011;2753;49.196;8.286;2023-09-12T08:39:44;17.60;;;8.50;;
5460;SDS011;2753;49.196;8.286;2023-09-12T08:42:17;22.30;;;8.93;;
5460;SDS011;2753;49.196;8.286;2023-09-12T08:44:43;28.53;;;9.03;;
5460;SDS011;2753;49.196;8.286;2023-09-12T08:47:09;12.20;;;8.40;;
5460;SDS011;2753;49.196;8.286;2023-09-12T08:49:36;17.20;;;8.10;;
5460;SDS011;2753;49.196;8.286;2023-09-12T08:52:03;15.53;;;7.63;;
5460;SDS011;2753;49.196;8.286;2023-09-12T08:54:30;19.67;;;8.10;;
5460;SDS011;2753;49.196;8.286;2023-09-12T08:56:56;13.40;;;7.70;;
5460;SDS011;2753;49.196;8.286;2023-09-12T08:59:23;20.93;;;9.23;;
5460;SDS011;2753;49.196;8.286;2023-09-12T09:01:49;14.23;;;7.90;;
5460;SDS011;2753;49.196;8.286;2023-09-12T09:04:17;18.43;;;8.20;;
5460;SDS011;2753;49.196;8.286;2023-09-12T09:06:44;19.10;;;8.93;;
5460;SDS011;2753;49.196;8.286;2023-09-12T09:09:11;16.30;;;9.00;;
5460;SDS011;2753;49.196;8.286;2023-09-12T09:11:37;15.93;;;7.17;;
5460;SDS011;2753;49.196;8.286;2023-09-12T09:14:03;20.60;;;8.30;;
5460;SDS011;2753;49.196;8.286;2023-09-12T09:16:29;16.20;;;8.50;;
5460;SDS011;2753;49.196;8.286;2023-09-12T09:19:02;16.83;;;8.10;;
5460;SDS011;2753;49.196;8.286;2023-09-12T09:21:37;15.30;;;7.90;;
5460;SDS011;2753;49.196;8.286;2023-09-12T09:24:10;17.90;;;8.77;;
5460;SDS011;2753;49.196;8.286;2023-09-12T09:29:14;19.30;;;8.60;;
5460;SDS011;2753;49.196;8.286;2023-09-12T09:31:41;22.40;;;8.07;;
5460;SDS011;2753;49.196;8.286;2023-09-12T09:34:14;12.03;;;8.30;;
5460;SDS011;2753;49.196;8.286;2023-09-12T09:36:47;18.03;;;7.73;;
5460;SDS011;2753;49.196;8.286;2023-09-12T09:39:13;13.83;;;7.93;;
5460;SDS011;2753;49.196;8.286;2023-09-12T09:41:39;13.83;;;8.40;;
5460;SDS011;2753;49.196;8.286;2023-09-12T09:44:06;14.27;;;8.57;;
5460;SDS011;2753;49.196;8.286;2023-09-12T09:46:36;23.20;;;8.53;;
5460;SDS011;2753;49.196;8.286;2023-09-12T09:49:03;17.57;;;7.70;;
5460;SDS011;2753;49.196;8.286;2023-09-12T09:51:29;15.27;;;8.33;;
5460;SDS011;2753;49.196;8.286;2023-09-12T09:53:56;13.10;;;7.80;;
5460;SDS011;2753;49.196;8.286;2023-09-12T09:56:23;12.20;;;7.30;;
5460;SDS011;2753;49.196;8.286;2023-09-12T09:58:51;12.50;;;7.90;;
5460;SDS011;2753;49.196;8.286;2023-09-12T10:01:21;13.77;;;7.60;;
5460;SDS011;2753;49.196;8.286;2023-09-12T10:03:50;12.53;;;8.17;;
5460;SDS011;2753;49.196;8.286;2023-09-12T10:06:17;17.60;;;7.83;;
5460;SDS011;2753;49.196;8.286;2023-09-12T10:08:44;11.80;;;7.30;;
5460;SDS011;2753;49.196;8.286;2023-09-12T10:11:15;11.83;;;7.33;;
5460;SDS011;2753;49.196;8.286;2023-09-12T10:14:02;9.30;;;7.40;;
5460;SDS011;2753;49.196;8.286;2023-09-12T10:16:30;17.23;;;7.43;;
5460;SDS011;2753;49.196;8.286;2023-09-12T10:22:06;14.90;;;7.20;;
5460;SDS011;2753;49.196;8.286;2023-09-12T10:24:40;13.13;;;7.07;;
5460;SDS011;2753;49.196;8.286;2023-09-12T10:27:08;15.90;;;7.30;;
5460;SDS011;2753;49.196;8.286;2023-09-12T10:29:36;25.07;;;7.53;;
5460;SDS011;2753;49.196;8.286;2023-09-12T10:32:02;10.53;;;7.40;;
5460;SDS011;2753;49.196;8.286;2023-09-12T10:34:28;14.93;;;7.77;;
5460;SDS011;2753;49.196;8.286;2023-09-12T10:36:57;11.83;;;7.23;;
5460;SDS011;2753;49.196;8.286;2023-09-12T10:39:24;7.33;;;6.10;;
5460;SDS011;2753;49.196;8.286;2023-09-12T10:41:53;19.53;;;7.87;;
5460;SDS011;2753;49.196;8.286;2023-09-12T10:44:20;12.87;;;7.30;;
5460;SDS011;2753;49.196;8.286;2023-09-12T10:46:46;10.33;;;7.10;;
5460;SDS011;2753;49.196;8.286;2023-09-12T10:49:14;11.43;;;7.50;;
5460;SDS011;2753;49.196;8.286;2023-09-12T10:51:45;13.30;;;7.80;;
5460;SDS011;2753;49.196;8.286;2023-09-12T10:54:13;15.40;;;7.43;;
5460;SDS011;2753;49.196;8.286;2023-09-12T10:57:08;11.87;;;7.23;;
5460;SDS011;2753;49.196;8.286;2023-09-12T11:02:46;8.70;;;6.17;;
5460;SDS011;2753;49.196;8.286;2023-09-12T11:07:56;9.70;;;7.73;;
5460;SDS011;2753;49.196;8.286;2023-09-12T11:10:26;10.53;;;7.33;;
5460;SDS011;2753;49.196;8.286;2023-09-12T11:12:56;9.63;;;5.93;;
5460;SDS011;2753;49.196;8.286;2023-09-12T11:15:24;10.50;;;6.20;;
5460;SDS011;2753;49.196;8.286;2023-09-12T11:18:04;10.03;;;6.20;;
5460;SDS011;2753;49.196;8.286;2023-09-12T11:23:25;11.73;;;6.50;;
5460;SDS011;2753;49.196;8.286;2023-09-12T11:26:04;11.53;;;5.80;;
5460;SDS011;2753;49.196;8.286;2023-09-12T11:28:31;14.17;;;6.67;;
5460;SDS011;2753;49.196;8.286;2023-09-12T11:30:58;10.50;;;6.10;;
5460;SDS011;2753;49.196;8.286;2023-09-12T11:33:24;12.07;;;6.37;;
5460;SDS011;2753;49.196;8.286;2023-09-12T11:35:54;8.90;;;6.40;;
5460;SDS011;2753;49.196;8.286;2023-09-12T11:38:29;15.23;;;6.60;;
5460;SDS011;2753;49.196;8.286;2023-09-12T11:40:57;16.03;;;6.33;;
5460;SDS011;2753;49.196;8.286;2023-09-12T11:43:24;9.80;;;6.37;;
5460;SDS011;2753;49.196;8.286;2023-09-12T11:45:51;10.90;;;6.67;;
5460;SDS011;2753;49.196;8.286;2023-09-12T11:48:19;9.23;;;6.10;;
5460;SDS011;2753;49.196;8.286;2023-09-12T11:53:21;7.17;;;5.50;;
5460;SDS011;2753;49.196;8.286;2023-09-12T11:55:52;14.10;;;5.90;;
5460;SDS011;2753;49.196;8.286;2023-09-12T11:58:20;9.37;;;6.10;;
5460;SDS011;2753;49.196;8.286;2023-09-12T12:00:47;7.17;;;6.03;;
5460;SDS011;2753;49.196;8.286;2023-09-12T12:03:17;14.67;;;6.50;;
5460;SDS011;2753;49.196;8.286;2023-09-12T12:05:45;7.83;;;5.97;;
5460;SDS011;2753;49.196;8.286;2023-09-12T12:08:11;7.83;;;6.10;;
5460;SDS011;2753;49.196;8.286;2023-09-12T12:10:37;11.00;;;6.70;;
5460;SDS011;2753;49.196;8.286;2023-09-12T12:13:05;7.53;;;6.20;;
5460;SDS011;2753;49.196;8.286;2023-09-12T12:15:31;9.73;;;6.80;;
5460;SDS011;2753;49.196;8.286;2023-09-12T12:17:57;9.30;;;6.90;;
5460;SDS011;2753;49.196;8.286;2023-09-12T12:20:23;9.40;;;6.30;;
5460;SDS011;2753;49.196;8.286;2023-09-12T12:22:49;17.67;;;6.80;;
5460;SDS011;2753;49.196;8.286;2023-09-12T12:25:18;14.63;;;6.90;;
5460;SDS011;2753;49.196;8.286;2023-09-12T12:27:44;7.40;;;6.13;;
5460;SDS011;2753;49.196;8.286;2023-09-12T12:30:10;10.37;;;5.93;;
5460;SDS011;2753;49.196;8.286;2023-09-12T12:32:40;8.70;;;6.30;;
5460;SDS011;2753;49.196;8.286;2023-09-12T12:35:18;6.33;;;5.63;;
5460;SDS011;2753;49.196;8.286;2023-09-12T12:37:44;6.43;;;5.83;;
5460;SDS011;2753;49.196;8.286;2023-09-12T12:40:14;11.20;;;6.60;;
5460;SDS011;2753;49.196;8.286;2023-09-12T12:42:40;15.63;;;6.00;;
5460;SDS011;2753;49.196;8.286;2023-09-12T12:47:43;8.83;;;6.17;;
5460;SDS011;2753;49.196;8.286;2023-09-12T12:50:15;10.13;;;6.30;;
5460;SDS011;2753;49.196;8.286;2023-09-12T12:52:46;14.83;;;7.00;;
5460;SDS011;2753;49.196;8.286;2023-09-12T12:55:12;9.40;;;6.30;;
5460;SDS011;2753;49.196;8.286;2023-09-12T12:57:42;6.90;;;6.20;;
5460;SDS011;2753;49.196;8.286;2023-09-12T13:00:10;10.70;;;6.10;;
5460;SDS011;2753;49.196;8.286;2023-09-12T13:02:44;14.37;;;6.90;;
5460;SDS011;2753;49.196;8.286;2023-09-12T13:05:26;7.07;;;6.40;;
5460;SDS011;2753;49.196;8.286;2023-09-12T13:07:58;12.47;;;6.27;;
5460;SDS011;2753;49.196;8.286;2023-09-12T13:10:23;7.23;;;6.23;;
5460;SDS011;2753;49.196;8.286;2023-09-12T13:12:49;10.13;;;6.50;;
5460;SDS011;2753;49.196;8.286;2023-09-12T13:15:15;13.47;;;6.33;;
5460;SDS011;2753;49.196;8.286;2023-09-12T13:17:42;9.47;;;6.60;;
5460;SDS011;2753;49.196;8.286;2023-09-12T13:20:09;16.27;;;6.73;;
5460;SDS011;2753;49.196;8.286;2023-09-12T13:22:35;7.10;;;6.40;;
5460;SDS011;2753;49.196;8.286;2023-09-12T13:25:01;6.87;;;6.03;;
5460;SDS011;2753;49.196;8.286;2023-09-12T13:27:27;10.83;;;6.57;;
5460;SDS011;2753;49.196;8.286;2023-09-12T13:29:53;20.70;;;6.67;;
5460;SDS011;2753;49.196;8.286;2023-09-12T13:32:19;18.40;;;6.00;;
5460;SDS011;2753;49.196;8.286;2023-09-12T13:34:45;12.43;;;5.93;;
5460;SDS011;2753;49.196;8.286;2023-09-12T13:37:10;9.90;;;5.93;;
5460;SDS011;2753;49.196;8.286;2023-09-12T13:39:36;11.10;;;6.13;;
5460;SDS011;2753;49.196;8.286;2023-09-12T13:42:02;8.00;;;6.77;;
5460;SDS011;2753;49.196;8.286;2023-09-12T13:44:29;17.30;;;5.70;;
5460;SDS011;2753;49.196;8.286;2023-09-12T13:46:55;13.87;;;6.20;;
5460;SDS011;2753;49.196;8.286;2023-09-12T13:49:21;11.10;;;6.13;;
5460;SDS011;2753;49.196;8.286;2023-09-12T13:51:46;8.00;;;5.97;;
5460;SDS011;2753;49.196;8.286;2023-09-12T13:54:12;11.27;;;6.40;;
5460;SDS011;2753;49.196;8.286;2023-09-12T13:56:43;10.93;;;6.53;;
5460;SDS011;2753;49.196;8.286;2023-09-12T13:59:09;14.30;;;6.30;;
5460;SDS011;2753;49.196;8.286;2023-09-12T14:01:35;7.20;;;5.90;;
5460;SDS011;2753;49.196;8.286;2023-09-12T14:04:01;8.27;;;5.70;;
5460;SDS011;2753;49.196;8.286;2023-09-12T14:06:29;8.77;;;5.60;;
5460;SDS011;2753;49.196;8.286;2023-09-12T14:08:56;10.47;;;6.57;;
5460;SDS011;2753;49.196;8.286;2023-09-12T14:11:22;17.07;;;6.73;;
5460;SDS011;2753;49.196;8.286;2023-09-12T14:13:47;9.47;;;6.00;;
5460;SDS011;2753;49.196;8.286;2023-09-12T14:16:13;6.17;;;5.43;;
5460;SDS011;2753;49.196;8.286;2023-09-12T14:18:39;12.93;;;6.23;;
5460;SDS011;2753;49.196;8.286;2023-09-12T14:21:04;7.47;;;5.43;;
5460;SDS011;2753;49.196;8.286;2023-09-12T14:23:30;7.57;;;6.53;;
5460;SDS011;2753;49.196;8.286;2023-09-12T14:25:56;6.13;;;5.53;;
5460;SDS011;2753;49.196;8.286;2023-09-12T14:28:21;9.37;;;5.90;;
5460;SDS011;2753;49.196;8.286;2023-09-12T14:30:47;6.70;;;6.00;;
5460;SDS011;2753;49.196;8.286;2023-09-12T14:33:15;13.33;;;5.87;;
5460;SDS011;2753;49.196;8.286;2023-09-12T14:35:42;5.63;;;5.07;;
5460;SDS011;2753;49.196;8.286;2023-09-12T14:38:08;5.77;;;5.13;;
5460;SDS011;2753;49.196;8.286;2023-09-12T14:40:37;7.73;;;4.97;;
5460;SDS011;2753;49.196;8.286;2023-09-12T14:43:03;11.37;;;5.53;;
5460;SDS011;2753;49.196;8.286;2023-09-12T14:45:28;11.13;;;4.40;;
5460;SDS011;2753;49.196;8.286;2023-09-12T14:47:55;12.67;;;5.50;;
5460;SDS011;2753;49.196;8.286;2023-09-12T14:50:22;5.37;;;4.83;;
5460;SDS011;2753;49.196;8.286;2023-09-12T14:52:52;14.93;;;6.33;;
5460;SDS011;2753;49.196;8.286;2023-09-12T14:55:17;10.87;;;5.40;;
5460;SDS011;2753;49.196;8.286;2023-09-12T14:57:43;14.60;;;5.33;;
5460;SDS011;2753;49.196;8.286;2023-09-12T15:00:09;9.63;;;6.20;;
5460;SDS011;2753;49.196;8.286;2023-09-12T15:02:36;5.93;;;5.10;;
5460;SDS011;2753;49.196;8.286;2023-09-12T15:05:02;5.50;;;5.00;;
5460;SDS011;2753;49.196;8.286;2023-09-12T15:07:31;8.40;;;4.73;;
5460;SDS011;2753;49.196;8.286;2023-09-12T15:09:58;9.00;;;5.23;;
5460;SDS011;2753;49.196;8.286;2023-09-12T15:12:25;9.23;;;5.37;;
5460;SDS011;2753;49.196;8.286;2023-09-12T15:14:51;9.00;;;5.27;;
5460;SDS011;2753;49.196;8.286;2023-09-12T15:17:19;10.80;;;4.47;;
5460;SDS011;2753;49.196;8.286;2023-09-12T15:19:45;10.40;;;5.77;;
5460;SDS011;2753;49.196;8.286;2023-09-12T15:22:11;7.33;;;5.20;;
5460;SDS011;2753;49.196;8.286;2023-09-12T15:24:39;8.87;;;5.53;;
5460;SDS011;2753;49.196;8.286;2023-09-12T15:27:05;5.63;;;5.13;;
5460;SDS011;2753;49.196;8.286;2023-09-12T15:29:31;8.17;;;5.27;;
5460;SDS011;2753;49.196;8.286;2023-09-12T15:31:57;6.43;;;5.73;;
5460;SDS011;2753;49.196;8.286;2023-09-12T15:34:26;13.13;;;4.93;;
5460;SDS011;2753;49.196;8.286;2023-09-12T15:37:05;10.10;;;5.40;;
5460;SDS011;2753;49.196;8.286;2023-09-12T15:39:33;8.20;;;6.47;;